Airfield :
LOGIN :

Register | Disclaimer

   EN    FR    IT 

 










Legend :    VFR   Marginal VFR   IFR   Intensive IFR   Very Intensive IFR
Visi :
Ceiling :
>= 8 km
>= 3000ft
5 to 8 km
1000 to 3000 ft
1500m to 5 km
500 to 1000 ft
800 to 1500m
200 to 500 ft
< 800m
< 200 ft
Symbols :   Thunderstorms  Fog  Heavy snow  Heavy precipitations  Wind > 20 kt
SIGMETs :     Misc.  Thunderstorms  Icing  Turbulence  Mountain Waves  Volcanic Ashes






- Airport Elevation : 3 ft
- IATA code : LWR


EHLW - Leuuwarden Air Base

CURRENT METAR :
  • 240625Z AUTO 32007KT 290V020 9999 FEW015CB SCT064 04/03 Q1007 RERA BLU TEMPO 34020G30KT 4500 SHRA FEW010 SCT015CB BKN025

EXPIRED METARs :
  • 240613Z AUTO 34009KT 300V020 9999 FEW015CB SCT025 BKN050 04/03 Q1007 BLU TEMPO 34020G30KT 4500 SHRA FEW010 SCT015CB BKN025
  • 240603Z AUTO 34019G29KT 300V010 6000 RA FEW013 SCT015CB BKN019 04/02 Q1008 WHT TEMPO 34020G30KT 4500 SHRA FEW010 SCT015CB BKN025
  • 240555Z AUTO 32016KT 280V360 9999 FEW015CB SCT028 BKN032 06/03 Q1007 BLU TEMPO 34018G27KT 4500 SHRA FEW010 SCT015CB BKN025
  • 240549Z AUTO 32013KT 280V350 9999 FEW015CB SCT025 BKN028 06/04 Q1007 BLU TEMPO 34018G27KT 4500 SHRA FEW010 SCT015CB BKN025
  • 240527Z AUTO 33009KT 280V360 9999 FEW018 BKN054 05/03 Q1007 BLU TEMPO 34018G27KT 4500 SHRA FEW010 SCT015CB BKN025
  • 240525Z AUTO 33009KT 9999 FEW049 BKN053 BKN059 05/03 Q1008 REDZ BLU
  • 240508Z AUTO 34012KT 310V020 9999 DZRA FEW015CB SCT022 BKN032 05/03 Q1008 WHT
  • 240455Z AUTO 33014KT 300V020 9999 -RA FEW011 SCT013 FEW015CB BKN016 05/04 Q1008 GRN
  • 240439Z AUTO 31018KT 280V350 9999 FEW014 FEW015CB SCT016 BKN027 05/03 Q1008 WHT
  • 240425Z AUTO 31015KT 270V340 9999 -RA BKN015CB OVC019 05/03 Q1008 RERA REDZ WHT
  • 240409Z AUTO 32013KT 280V360 9999 SCT015CB SCT021 BKN038 05/03 Q1008 WHT
  • 240325Z AUTO 32013KT 290V360 9999 FEW015CB SCT042 BKN062 05/03 Q1008 BLU
  • 240313Z AUTO 33017KT 280V010 9999 -RA FEW015CB SCT027 BKN031 05/02 Q1008 BLU
  • 240259Z AUTO 34014KT 310V020 9999 -RADZ FEW015CB SCT027 BKN032 05/04 Q1009 BLU
  • 240255Z AUTO 35015KT 9999 -RA FEW014 FEW015CB SCT017 BKN024 05/04 Q1009 RERA REDZ WHT
  • 240244Z AUTO 33016KT 280V360 9999 -UP FEW015CB SCT022 OVC047 06/03 Q1009 WHT
  • 240225Z AUTO 32015KT 290V360 9999 FEW015CB BKN047 OVC054 06/03 Q1009 BLU
  • 240155Z AUTO 32016KT 280V360 9999 FEW024 SCT042 BKN047 06/02 Q1009 BLU

TAF TAF EHLW
Valid from the 24 at 05:00 until the 24 at 17:00 UTC


240414Z 2405/2417 33017G28KT 9999 FEW025 BKN035
TEMPO 2405/2417 34020G32KT 4000 SHRAGS FEW012 SCT015CB BKN025



MET'MAP, your aeronautical weather chart ! - Copyright ORBIFLY December 2007 - Disclaimer

ORBIFLY MET'MAP TEAM :

Programming & Development : Alexandra Zaïnal
Original concept : Baudouin d'Aumeries
Technical & hardware support : Manuel Goepfert
Assistance : Marc-Olivier Méhu




SOURCES & CREDITS :

   NOAA